Surface/Precipitation History
05/24/2017 10:20  to  5/25/2017 10:20
Change End Date:
Date/Time
(MDT)
Sf
Temp Chem Water Layer Surface Precipitation
Sfc Pvt Sub Frz Factor Pct Dpth DpthThk IcePct Cond Salin FI Type Intens Accum Rate
05/24/2017 15:55 Dry 100.0F - 62F - - - - - - 32 mhos 1720 - None None - -
05/24/2017 15:46 Dry 101.5F - 62F - - - - - - 31 mhos 1693 - None None - -
05/24/2017 15:40 Dry 100.9F - 62F - - - - - - 31 mhos 1699 - None None - -
05/24/2017 15:36 Dry 101.8F - 62F - - - - - - 31 mhos 1679 - None None - -
05/24/2017 15:26 Dry 101.7F - 62F - - - - - - 31 mhos 1681 - None None - -
05/24/2017 15:25 Dry 101.7F - 62F - - - - - - 31 mhos 1681 - None None - -
05/24/2017 15:16 Dry 100.9F - 62F - - - - - - 31 mhos 1699 - None None - -
05/24/2017 15:10 Dry 101.7F - 62F - - - - - - 31 mhos 1681 - None None - -
05/24/2017 15:06 Dry 101.3F - 62F - - - - - - 31 mhos 1685 - None None - -
05/24/2017 14:55 Dry 101.7F - 61F - - - - - - 31 mhos 1681 - None None - -
05/24/2017 14:55 Dry 101.7F - 61F - - - - - - 31 mhos 1681 - None None - -
05/24/2017 14:45 Dry 102.2F - 61F - - - - - - 31 mhos 1674 - None None - -
05/24/2017 14:40 Dry 102.2F - 61F - - - - - - 31 mhos 1674 - None None - -
05/24/2017 14:35 Dry 102.0F - 61F - - - - - - 31 mhos 1677 - None None - -
05/24/2017 14:25 Dry 102.6F - 61F - - - - - - 31 mhos 1671 - None None - -
Date/Time
(MDT)
Sf
Temp Chem Water Layer Surface Precipitation
Sfc Pvt Sub Frz Factor Pct Dpth DpthThk IcePct Cond Salin FI Type Intens Accum Rate
05/24/2017 14:15 Dry 101.8F - 61F - - - - - - 31 mhos 1678 - None None - -
05/24/2017 14:05 Dry 102.0F - 61F - - - - - - 31 mhos 1676 - None None - -
05/24/2017 13:55 Dry 101.1F - 61F - - - - - - 31 mhos 1697 - None None - -
05/24/2017 13:45 Dry 101.5F - 61F - - - - - - 32 mhos 1704 - None None - -
05/24/2017 13:35 Dry 100.6F - 60F - - - - - - 32 mhos 1725 - None None - -
05/24/2017 13:25 Dry 99.3F - 60F - - - - - - 32 mhos 1751 - None None - -
05/24/2017 13:15 Dry 98.8F - 60F - - - - - - 32 mhos 1770 - None None - -
05/24/2017 13:05 Dry 97.7F - 60F - - - - - - 32 mhos 1793 - None None - -
05/24/2017 12:55 Dry 96.1F - 60F - - - - - - 33 mhos 1839 - None None - -
05/24/2017 12:45 Dry 95.9F - 60F - - - - - - 33 mhos 1841 - None None - -
05/24/2017 12:35 Dry 94.3F - 60F - - - - - - 33 mhos 1877 - None None - -
05/24/2017 12:25 Dry 93.7F - 60F - - - - - - 33 mhos 1908 - None None - -
05/24/2017 12:15 Dry 92.1F - 60F - - - - - - 33 mhos 1934 - None None - -
05/24/2017 12:05 Dry 91.6F - 60F - - - - - - 33 mhos 1954 - None None - -
05/24/2017 11:55 Dry 90.1F - 60F - - - - - - 34 mhos 1991 - None None - -
Date/Time
(MDT)
Sf
Temp Chem Water Layer Surface Precipitation
Sfc Pvt Sub Frz Factor Pct Dpth DpthThk IcePct Cond Salin FI Type Intens Accum Rate
05/24/2017 11:44 Dry 89.6F - 60F - - - - - - 34 mhos 2014 - None None - -
05/24/2017 11:34 Dry 88.0F - 60F - - - - - - 34 mhos 2053 - None None - -
05/24/2017 11:24 Dry 86.7F - 60F - - - - - - 34 mhos 2090 - None None - -
05/24/2017 11:14 Dry 84.7F - 60F - - - - - - 35 mhos 2151 - None None - -
05/24/2017 11:04 Dry 83.8F - 60F - - - - - - 35 mhos 2169 - None None - -
05/24/2017 10:54 Dry 82.4F - 60F - - - - - - 35 mhos 2227 - None None - -
05/24/2017 10:44 Dry 80.8F - 60F - - - - - - 35 mhos 2261 - None None - -
05/24/2017 10:34 Dry 79.2F - 60F - - - - - - 35 mhos 2308 - None None - -
05/24/2017 10:24 Dry 78.1F - 60F - - - - - - 35 mhos 2331 - None None - -
Change End Date:

Copyright © 1998-2015 Vaisala, Inc.
All Rights Reserved
Send comments about the data to:
SCAN Web ® is a registered trademark of Vaisala, Inc.
SCAN Web Version 6.0